Fawnskin, California
Current Conditions -  °F | °C
As of 12:35 PM on Friday 19 Dec 2014 (Local Time) from KL35 Reporting Station
Clear Clear  
Wind Chill: 40°   Ceiling: Unl
Heat Index: 45°   Visibility: 10mi
Dew Point: 21°   Wind: 8mph
Humidity: 39%   Direction: 260°W
Pressure: 30.2"   Gusts: NA
Location:  34.27°N, 116.94°W
Report Text: KL35 192035Z AUTO 26007KT 10SM CLR 07/M06 A3020 RMK AO2
Loading
Personal Weather Stations






























Interactive Weather Map New forecast layout! Learn more

10-Day Weather Forecast

Advertisements
Track Severe Weather on mobile